sensor_id;sensor_type;location;lat;lon;timestamp;pressure;altitude;pressure_sealevel;temperature;humidity
26937;BME280;14495;48.116;11.676;2022-09-17T00:01:34;95053.13;;;10.74;100.00
26937;BME280;14495;48.116;11.676;2022-09-17T00:04:00;95053.69;;;10.67;100.00
26937;BME280;14495;48.116;11.676;2022-09-17T00:06:28;95045.94;;;10.65;100.00
26937;BME280;14495;48.116;11.676;2022-09-17T00:08:54;95052.91;;;10.53;100.00
26937;BME280;14495;48.116;11.676;2022-09-17T00:11:23;95056.28;;;10.67;100.00
26937;BME280;14495;48.116;11.676;2022-09-17T00:13:51;95061.09;;;10.60;100.00
26937;BME280;14495;48.116;11.676;2022-09-17T00:16:22;95051.69;;;10.70;100.00
26937;BME280;14495;48.116;11.676;2022-09-17T00:18:48;95055.88;;;10.60;100.00
26937;BME280;14495;48.116;11.676;2022-09-17T00:21:17;95046.16;;;10.62;100.00
26937;BME280;14495;48.116;11.676;2022-09-17T00:23:43;95046.59;;;10.56;100.00
26937;BME280;14495;48.116;11.676;2022-09-17T00:26:08;95049.03;;;10.46;100.00
26937;BME280;14495;48.116;11.676;2022-09-17T00:28:34;95042.31;;;10.55;100.00
26937;BME280;14495;48.116;11.676;2022-09-17T00:30:59;95048.38;;;10.55;100.00
26937;BME280;14495;48.116;11.676;2022-09-17T00:33:24;95048.44;;;10.42;100.00
26937;BME280;14495;48.116;11.676;2022-09-17T00:36:00;95048.19;;;10.45;100.00
26937;BME280;14495;48.116;11.676;2022-09-17T00:38:26;95052.41;;;10.35;100.00
26937;BME280;14495;48.116;11.676;2022-09-17T00:40:52;95060.88;;;10.39;100.00
26937;BME280;14495;48.116;11.676;2022-09-17T00:43:43;95057.72;;;10.47;100.00
26937;BME280;14495;48.116;11.676;2022-09-17T00:46:33;95062.78;;;10.61;100.00
26937;BME280;14495;48.116;11.676;2022-09-17T00:49:04;95069.53;;;10.39;100.00
26937;BME280;14495;48.116;11.676;2022-09-17T00:51:38;95072.66;;;10.44;100.00
26937;BME280;14495;48.116;11.676;2022-09-17T00:54:06;95072.44;;;10.48;100.00
26937;BME280;14495;48.116;11.676;2022-09-17T00:56:34;95076.19;;;10.43;100.00
26937;BME280;14495;48.116;11.676;2022-09-17T00:59:01;95074.00;;;10.50;100.00
26937;BME280;14495;48.116;11.676;2022-09-17T01:01:28;95078.81;;;10.43;100.00
26937;BME280;14495;48.116;11.676;2022-09-17T01:03:53;95083.94;;;10.32;100.00
26937;BME280;14495;48.116;11.676;2022-09-17T01:06:36;95081.66;;;10.40;100.00
26937;BME280;14495;48.116;11.676;2022-09-17T01:09:51;95081.38;;;10.56;100.00
26937;BME280;14495;48.116;11.676;2022-09-17T01:15:41;95071.56;;;10.60;100.00
26937;BME280;14495;48.116;11.676;2022-09-17T01:32:11;95065.75;;;10.43;100.00
26937;BME280;14495;48.116;11.676;2022-09-17T01:35:03;95062.94;;;10.21;100.00
26937;BME280;14495;48.116;11.676;2022-09-17T01:37:32;95064.72;;;10.20;100.00
26937;BME280;14495;48.116;11.676;2022-09-17T01:42:48;95065.13;;;10.27;100.00
26937;BME280;14495;48.116;11.676;2022-09-17T01:47:51;95048.63;;;10.26;100.00
26937;BME280;14495;48.116;11.676;2022-09-17T01:50:22;95058.44;;;10.23;100.00
26937;BME280;14495;48.116;11.676;2022-09-17T01:52:50;95063.69;;;10.36;100.00
26937;BME280;14495;48.116;11.676;2022-09-17T01:55:19;95058.03;;;10.29;100.00
26937;BME280;14495;48.116;11.676;2022-09-17T01:57:52;95060.97;;;10.24;100.00
26937;BME280;14495;48.116;11.676;2022-09-17T02:00:19;95062.13;;;10.07;100.00
26937;BME280;14495;48.116;11.676;2022-09-17T02:05:42;95058.28;;;10.00;100.00
26937;BME280;14495;48.116;11.676;2022-09-17T02:08:14;95063.06;;;10.06;100.00
26937;BME280;14495;48.116;11.676;2022-09-17T02:10:44;95069.34;;;9.91;100.00
26937;BME280;14495;48.116;11.676;2022-09-17T02:13:19;95063.28;;;10.03;100.00
26937;BME280;14495;48.116;11.676;2022-09-17T02:15:49;95066.94;;;9.88;100.00
26937;BME280;14495;48.116;11.676;2022-09-17T02:18:38;95062.66;;;10.00;100.00
26937;BME280;14495;48.116;11.676;2022-09-17T02:21:12;95060.97;;;10.12;100.00
26937;BME280;14495;48.116;11.676;2022-09-17T02:23:49;95063.47;;;10.26;100.00
26937;BME280;14495;48.116;11.676;2022-09-17T02:26:19;95061.69;;;10.14;100.00
26937;BME280;14495;48.116;11.676;2022-09-17T02:28:52;95057.63;;;10.22;100.00
26937;BME280;14495;48.116;11.676;2022-09-17T02:31:19;95047.63;;;10.16;100.00
26937;BME280;14495;48.116;11.676;2022-09-17T02:33:48;95047.19;;;10.22;100.00
26937;BME280;14495;48.116;11.676;2022-09-17T02:36:15;95037.38;;;10.13;100.00
26937;BME280;14495;48.116;11.676;2022-09-17T02:38:43;95030.91;;;10.19;100.00
26937;BME280;14495;48.116;11.676;2022-09-17T02:41:13;95033.72;;;10.16;100.00
26937;BME280;14495;48.116;11.676;2022-09-17T02:43:49;95029.75;;;10.10;100.00
26937;BME280;14495;48.116;11.676;2022-09-17T02:54:45;95010.47;;;10.00;100.00
26937;BME280;14495;48.116;11.676;2022-09-17T02:59:51;94993.88;;;9.88;100.00
26937;BME280;14495;48.116;11.676;2022-09-17T03:02:26;94995.69;;;9.75;100.00
26937;BME280;14495;48.116;11.676;2022-09-17T03:04:55;95000.88;;;9.87;100.00
26937;BME280;14495;48.116;11.676;2022-09-17T03:07:22;95006.00;;;9.89;100.00
26937;BME280;14495;48.116;11.676;2022-09-17T03:09:48;95003.59;;;9.86;100.00
26937;BME280;14495;48.116;11.676;2022-09-17T03:12:13;95000.78;;;9.76;100.00
26937;BME280;14495;48.116;11.676;2022-09-17T03:14:39;95011.75;;;9.68;100.00
26937;BME280;14495;48.116;11.676;2022-09-17T03:17:04;95001.00;;;9.60;100.00
26937;BME280;14495;48.116;11.676;2022-09-17T03:19:30;95005.47;;;9.84;100.00
26937;BME280;14495;48.116;11.676;2022-09-17T03:21:55;95003.94;;;9.68;100.00
26937;BME280;14495;48.116;11.676;2022-09-17T03:24:20;95013.00;;;9.76;100.00
26937;BME280;14495;48.116;11.676;2022-09-17T03:26:46;95011.88;;;9.67;100.00
26937;BME280;14495;48.116;11.676;2022-09-17T03:29:15;95010.06;;;9.67;100.00
26937;BME280;14495;48.116;11.676;2022-09-17T03:31:40;95005.09;;;9.64;100.00
26937;BME280;14495;48.116;11.676;2022-09-17T03:34:06;95003.84;;;9.57;100.00
26937;BME280;14495;48.116;11.676;2022-09-17T03:36:31;95005.28;;;9.48;100.00
26937;BME280;14495;48.116;11.676;2022-09-17T03:38:57;95007.28;;;9.45;100.00
26937;BME280;14495;48.116;11.676;2022-09-17T03:41:24;95011.56;;;9.46;100.00
26937;BME280;14495;48.116;11.676;2022-09-17T03:43:49;95016.03;;;9.44;100.00
26937;BME280;14495;48.116;11.676;2022-09-17T03:46:15;95018.94;;;9.26;100.00
26937;BME280;14495;48.116;11.676;2022-09-17T03:48:40;95033.88;;;9.37;100.00
26937;BME280;14495;48.116;11.676;2022-09-17T03:51:06;95022.59;;;9.37;100.00
26937;BME280;14495;48.116;11.676;2022-09-17T03:53:32;95023.25;;;9.53;100.00
26937;BME280;14495;48.116;11.676;2022-09-17T03:55:58;95019.88;;;9.51;100.00
26937;BME280;14495;48.116;11.676;2022-09-17T03:58:24;95023.34;;;9.64;100.00
26937;BME280;14495;48.116;11.676;2022-09-17T04:00:50;95015.09;;;9.32;100.00
26937;BME280;14495;48.116;11.676;2022-09-17T04:03:17;95020.28;;;9.32;100.00
26937;BME280;14495;48.116;11.676;2022-09-17T04:05:43;95018.31;;;9.36;100.00
26937;BME280;14495;48.116;11.676;2022-09-17T04:08:08;95012.81;;;9.53;100.00
26937;BME280;14495;48.116;11.676;2022-09-17T04:10:33;95024.06;;;9.41;100.00
26937;BME280;14495;48.116;11.676;2022-09-17T04:12:58;95024.34;;;9.36;100.00
26937;BME280;14495;48.116;11.676;2022-09-17T04:15:24;95032.69;;;9.28;100.00
26937;BME280;14495;48.116;11.676;2022-09-17T04:17:49;95023.25;;;9.40;100.00
26937;BME280;14495;48.116;11.676;2022-09-17T04:20:14;95020.72;;;9.39;100.00
26937;BME280;14495;48.116;11.676;2022-09-17T04:22:40;95015.28;;;9.29;100.00
26937;BME280;14495;48.116;11.676;2022-09-17T04:25:06;95012.34;;;9.08;100.00
26937;BME280;14495;48.116;11.676;2022-09-17T04:27:31;95006.72;;;9.27;100.00
26937;BME280;14495;48.116;11.676;2022-09-17T04:29:56;95023.22;;;9.27;100.00
26937;BME280;14495;48.116;11.676;2022-09-17T04:32:22;95028.22;;;9.31;100.00
26937;BME280;14495;48.116;11.676;2022-09-17T04:34:47;95040.59;;;9.14;100.00
26937;BME280;14495;48.116;11.676;2022-09-17T04:37:12;95041.00;;;9.08;100.00
26937;BME280;14495;48.116;11.676;2022-09-17T04:39:37;95050.66;;;9.33;100.00
26937;BME280;14495;48.116;11.676;2022-09-17T04:42:03;95064.31;;;9.37;100.00
26937;BME280;14495;48.116;11.676;2022-09-17T04:44:29;95054.81;;;9.36;100.00
26937;BME280;14495;48.116;11.676;2022-09-17T04:46:54;95059.13;;;9.50;100.00
26937;BME280;14495;48.116;11.676;2022-09-17T04:49:20;95063.06;;;9.29;100.00
26937;BME280;14495;48.116;11.676;2022-09-17T04:51:45;95075.56;;;9.24;100.00
26937;BME280;14495;48.116;11.676;2022-09-17T04:54:10;95094.47;;;9.41;100.00
26937;BME280;14495;48.116;11.676;2022-09-17T04:56:36;95083.50;;;9.36;100.00
26937;BME280;14495;48.116;11.676;2022-09-17T04:59:01;95095.72;;;9.35;100.00
26937;BME280;14495;48.116;11.676;2022-09-17T05:01:26;95101.47;;;9.40;100.00
26937;BME280;14495;48.116;11.676;2022-09-17T05:03:52;95101.44;;;9.27;100.00
26937;BME280;14495;48.116;11.676;2022-09-17T05:06:17;95097.28;;;9.38;100.00
26937;BME280;14495;48.116;11.676;2022-09-17T05:08:42;95094.34;;;9.29;100.00
26937;BME280;14495;48.116;11.676;2022-09-17T05:11:07;95108.72;;;9.22;100.00
26937;BME280;14495;48.116;11.676;2022-09-17T05:13:33;95103.09;;;9.28;100.00
26937;BME280;14495;48.116;11.676;2022-09-17T05:15:58;95112.91;;;9.38;100.00
26937;BME280;14495;48.116;11.676;2022-09-17T05:18:24;95116.84;;;9.31;100.00
26937;BME280;14495;48.116;11.676;2022-09-17T05:20:50;95115.75;;;9.47;100.00
26937;BME280;14495;48.116;11.676;2022-09-17T05:23:15;95128.72;;;9.62;100.00
26937;BME280;14495;48.116;11.676;2022-09-17T05:25:41;95138.16;;;9.37;100.00
26937;BME280;14495;48.116;11.676;2022-09-17T05:28:07;95138.44;;;9.33;100.00
26937;BME280;14495;48.116;11.676;2022-09-17T05:30:32;95143.56;;;9.34;100.00
26937;BME280;14495;48.116;11.676;2022-09-17T05:32:59;95145.25;;;9.35;100.00
26937;BME280;14495;48.116;11.676;2022-09-17T05:35:25;95149.50;;;9.36;100.00
26937;BME280;14495;48.116;11.676;2022-09-17T05:37:50;95162.16;;;9.42;100.00
26937;BME280;14495;48.116;11.676;2022-09-17T05:40:16;95160.84;;;9.22;100.00
26937;BME280;14495;48.116;11.676;2022-09-17T05:42:41;95161.72;;;9.36;100.00
26937;BME280;14495;48.116;11.676;2022-09-17T05:45:07;95164.03;;;9.40;100.00
26937;BME280;14495;48.116;11.676;2022-09-17T05:47:32;95161.91;;;9.33;100.00
26937;BME280;14495;48.116;11.676;2022-09-17T05:49:59;95168.06;;;9.32;100.00
26937;BME280;14495;48.116;11.676;2022-09-17T05:52:27;95171.56;;;9.45;100.00
26937;BME280;14495;48.116;11.676;2022-09-17T05:54:53;95169.50;;;9.50;100.00
26937;BME280;14495;48.116;11.676;2022-09-17T05:57:19;95174.69;;;9.50;100.00
26937;BME280;14495;48.116;11.676;2022-09-17T05:59:44;95177.81;;;9.42;100.00
26937;BME280;14495;48.116;11.676;2022-09-17T06:02:12;95176.03;;;9.43;100.00
26937;BME280;14495;48.116;11.676;2022-09-17T06:04:37;95182.53;;;9.50;100.00
26937;BME280;14495;48.116;11.676;2022-09-17T06:07:04;95174.97;;;9.45;100.00
26937;BME280;14495;48.116;11.676;2022-09-17T06:09:33;95175.59;;;9.36;100.00
26937;BME280;14495;48.116;11.676;2022-09-17T06:11:59;95171.56;;;9.45;100.00
26937;BME280;14495;48.116;11.676;2022-09-17T06:14:24;95173.47;;;9.56;100.00
26937;BME280;14495;48.116;11.676;2022-09-17T06:16:49;95167.59;;;9.52;100.00
26937;BME280;14495;48.116;11.676;2022-09-17T06:19:15;95166.44;;;9.83;100.00
26937;BME280;14495;48.116;11.676;2022-09-17T06:21:40;95172.81;;;9.52;100.00
26937;BME280;14495;48.116;11.676;2022-09-17T06:24:05;95166.09;;;9.62;100.00
26937;BME280;14495;48.116;11.676;2022-09-17T06:26:30;95165.78;;;9.80;100.00
26937;BME280;14495;48.116;11.676;2022-09-17T06:28:57;95178.50;;;9.84;100.00
26937;BME280;14495;48.116;11.676;2022-09-17T06:31:23;95176.41;;;9.77;100.00
26937;BME280;14495;48.116;11.676;2022-09-17T06:33:49;95171.13;;;9.91;100.00
26937;BME280;14495;48.116;11.676;2022-09-17T06:36:15;95162.44;;;9.65;100.00
26937;BME280;14495;48.116;11.676;2022-09-17T06:38:41;95167.13;;;9.73;100.00
26937;BME280;14495;48.116;11.676;2022-09-17T06:41:06;95166.81;;;9.64;100.00
26937;BME280;14495;48.116;11.676;2022-09-17T06:43:32;95161.38;;;9.67;100.00
26937;BME280;14495;48.116;11.676;2022-09-17T06:46:00;95165.47;;;9.72;100.00
26937;BME280;14495;48.116;11.676;2022-09-17T06:48:27;95164.84;;;9.94;100.00
26937;BME280;14495;48.116;11.676;2022-09-17T06:50:53;95157.88;;;9.94;100.00
26937;BME280;14495;48.116;11.676;2022-09-17T06:53:20;95163.28;;;9.91;100.00
26937;BME280;14495;48.116;11.676;2022-09-17T06:55:45;95165.19;;;9.89;100.00
26937;BME280;14495;48.116;11.676;2022-09-17T06:58:11;95168.09;;;9.72;100.00
26937;BME280;14495;48.116;11.676;2022-09-17T07:00:36;95168.41;;;9.80;100.00
26937;BME280;14495;48.116;11.676;2022-09-17T07:03:01;95166.28;;;9.59;100.00
26937;BME280;14495;48.116;11.676;2022-09-17T07:05:28;95167.78;;;9.76;100.00
26937;BME280;14495;48.116;11.676;2022-09-17T07:07:54;95157.91;;;9.54;100.00
26937;BME280;14495;48.116;11.676;2022-09-17T07:10:19;95151.13;;;9.52;100.00
26937;BME280;14495;48.116;11.676;2022-09-17T07:12:45;95155.94;;;9.58;100.00
26937;BME280;14495;48.116;11.676;2022-09-17T07:15:11;95159.50;;;9.70;100.00
26937;BME280;14495;48.116;11.676;2022-09-17T07:17:37;95170.75;;;9.57;100.00
26937;BME280;14495;48.116;11.676;2022-09-17T07:20:06;95172.38;;;9.45;100.00
26937;BME280;14495;48.116;11.676;2022-09-17T07:22:32;95181.19;;;9.57;100.00
26937;BME280;14495;48.116;11.676;2022-09-17T07:24:57;95188.06;;;9.58;100.00
26937;BME280;14495;48.116;11.676;2022-09-17T07:27:22;95177.28;;;9.90;100.00
26937;BME280;14495;48.116;11.676;2022-09-17T07:29:48;95171.44;;;10.25;100.00
26937;BME280;14495;48.116;11.676;2022-09-17T07:32:13;95181.28;;;10.34;100.00
26937;BME280;14495;48.116;11.676;2022-09-17T07:34:38;95175.84;;;10.12;100.00
26937;BME280;14495;48.116;11.676;2022-09-17T07:37:04;95182.84;;;10.24;100.00
26937;BME280;14495;48.116;11.676;2022-09-17T07:39:29;95176.16;;;10.20;100.00
26937;BME280;14495;48.116;11.676;2022-09-17T07:41:55;95166.88;;;10.41;100.00
26937;BME280;14495;48.116;11.676;2022-09-17T07:44:20;95158.53;;;10.36;100.00
26937;BME280;14495;48.116;11.676;2022-09-17T07:46:46;95162.47;;;11.05;100.00
26937;BME280;14495;48.116;11.676;2022-09-17T07:49:12;95165.59;;;11.34;100.00
26937;BME280;14495;48.116;11.676;2022-09-17T07:51:37;95147.22;;;11.82;100.00
26937;BME280;14495;48.116;11.676;2022-09-17T07:54:02;95157.69;;;11.22;100.00
26937;BME280;14495;48.116;11.676;2022-09-17T07:56:28;95167.09;;;10.88;100.00
26937;BME280;14495;48.116;11.676;2022-09-17T07:58:54;95157.03;;;10.71;100.00
26937;BME280;14495;48.116;11.676;2022-09-17T08:01:19;95165.41;;;10.63;100.00
26937;BME280;14495;48.116;11.676;2022-09-17T08:03:48;95166.78;;;10.93;100.00
26937;BME280;14495;48.116;11.676;2022-09-17T08:06:16;95167.00;;;10.90;100.00
26937;BME280;14495;48.116;11.676;2022-09-17T08:08:43;95170.50;;;10.77;100.00
26937;BME280;14495;48.116;11.676;2022-09-17T08:11:11;95173.88;;;11.03;100.00
26937;BME280;14495;48.116;11.676;2022-09-17T08:13:37;95183.34;;;10.68;100.00
26937;BME280;14495;48.116;11.676;2022-09-17T08:16:05;95176.00;;;10.86;100.00
26937;BME280;14495;48.116;11.676;2022-09-17T08:18:31;95180.06;;;10.90;100.00
26937;BME280;14495;48.116;11.676;2022-09-17T08:21:01;95180.63;;;10.69;100.00
26937;BME280;14495;48.116;11.676;2022-09-17T08:23:28;95191.25;;;10.92;100.00
26937;BME280;14495;48.116;11.676;2022-09-17T08:25:55;95183.94;;;10.97;100.00
26937;BME280;14495;48.116;11.676;2022-09-17T08:28:21;95182.13;;;10.97;100.00
26937;BME280;14495;48.116;11.676;2022-09-17T08:30:48;95187.63;;;11.67;100.00
26937;BME280;14495;48.116;11.676;2022-09-17T08:33:15;95181.91;;;12.44;100.00
26937;BME280;14495;48.116;11.676;2022-09-17T08:35:40;95181.91;;;12.66;100.00
26937;BME280;14495;48.116;11.676;2022-09-17T08:38:06;95184.75;;;12.74;100.00
26937;BME280;14495;48.116;11.676;2022-09-17T08:40:38;95185.16;;;12.01;100.00
26937;BME280;14495;48.116;11.676;2022-09-17T08:43:09;95184.31;;;12.00;100.00
26937;BME280;14495;48.116;11.676;2022-09-17T08:45:39;95205.72;;;11.70;100.00
26937;BME280;14495;48.116;11.676;2022-09-17T08:48:04;95197.81;;;11.58;100.00
26937;BME280;14495;48.116;11.676;2022-09-17T08:50:33;95196.09;;;11.46;100.00
26937;BME280;14495;48.116;11.676;2022-09-17T08:53:06;95203.50;;;11.28;100.00
26937;BME280;14495;48.116;11.676;2022-09-17T08:56:01;95205.06;;;10.94;100.00
26937;BME280;14495;48.116;11.676;2022-09-17T09:04:04;95209.91;;;10.74;100.00
26937;BME280;14495;48.116;11.676;2022-09-17T09:06:37;95217.47;;;10.53;100.00
26937;BME280;14495;48.116;11.676;2022-09-17T09:09:15;95215.34;;;10.58;100.00
26937;BME280;14495;48.116;11.676;2022-09-17T09:11:41;95219.53;;;10.61;100.00
26937;BME280;14495;48.116;11.676;2022-09-17T09:16:56;95214.09;;;10.64;100.00
26937;BME280;14495;48.116;11.676;2022-09-17T09:19:25;95222.78;;;10.64;100.00
26937;BME280;14495;48.116;11.676;2022-09-17T09:22:00;95220.34;;;10.74;100.00
26937;BME280;14495;48.116;11.676;2022-09-17T09:24:36;95221.81;;;10.78;100.00
26937;BME280;14495;48.116;11.676;2022-09-17T09:29:42;95222.22;;;10.98;100.00
26937;BME280;14495;48.116;11.676;2022-09-17T09:35:34;95217.13;;;11.20;100.00
26937;BME280;14495;48.116;11.676;2022-09-17T09:38:11;95221.19;;;11.25;100.00
26937;BME280;14495;48.116;11.676;2022-09-17T09:43:20;95230.19;;;11.20;100.00
26937;BME280;14495;48.116;11.676;2022-09-17T09:51:47;95229.78;;;10.51;100.00
26937;BME280;14495;48.116;11.676;2022-09-17T09:57:11;95236.84;;;10.88;100.00
26937;BME280;14495;48.116;11.676;2022-09-17T09:59:36;95240.28;;;10.88;100.00
26937;BME280;14495;48.116;11.676;2022-09-17T10:02:02;95239.97;;;10.93;100.00
26937;BME280;14495;48.116;11.676;2022-09-17T10:04:28;95238.25;;;11.17;100.00
26937;BME280;14495;48.116;11.676;2022-09-17T10:07:01;95238.09;;;11.32;100.00
26937;BME280;14495;48.116;11.676;2022-09-17T10:09:28;95238.84;;;11.34;100.00
26937;BME280;14495;48.116;11.676;2022-09-17T10:14:35;95243.13;;;10.98;100.00
26937;BME280;14495;48.116;11.676;2022-09-17T10:19:36;95251.41;;;10.53;100.00
26937;BME280;14495;48.116;11.676;2022-09-17T10:22:18;95250.38;;;10.56;100.00
26937;BME280;14495;48.116;11.676;2022-09-17T10:24:47;95256.22;;;10.06;100.00
26937;BME280;14495;48.116;11.676;2022-09-17T10:27:16;95266.56;;;10.08;100.00
26937;BME280;14495;48.116;11.676;2022-09-17T10:29:43;95254.66;;;10.04;100.00
26937;BME280;14495;48.116;11.676;2022-09-17T10:32:21;95259.78;;;10.05;100.00
26937;BME280;14495;48.116;11.676;2022-09-17T10:35:25;95251.28;;;9.89;100.00
26937;BME280;14495;48.116;11.676;2022-09-17T10:37:52;95252.13;;;9.90;100.00
26937;BME280;14495;48.116;11.676;2022-09-17T10:42:48;95252.81;;;9.79;100.00
26937;BME280;14495;48.116;11.676;2022-09-17T10:45:24;95253.72;;;9.92;100.00
26937;BME280;14495;48.116;11.676;2022-09-17T10:47:50;95245.50;;;9.71;100.00
26937;BME280;14495;48.116;11.676;2022-09-17T10:50:19;95246.91;;;9.50;100.00
26937;BME280;14495;48.116;11.676;2022-09-17T10:52:56;95247.38;;;9.69;100.00
26937;BME280;14495;48.116;11.676;2022-09-17T10:55:30;95232.50;;;9.57;100.00
26937;BME280;14495;48.116;11.676;2022-09-17T11:00:44;95229.72;;;10.00;100.00
26937;BME280;14495;48.116;11.676;2022-09-17T11:06:06;95229.16;;;9.82;100.00
26937;BME280;14495;48.116;11.676;2022-09-17T11:14:16;95237.50;;;9.87;100.00
26937;BME280;14495;48.116;11.676;2022-09-17T11:21:55;95235.31;;;10.34;100.00
26937;BME280;14495;48.116;11.676;2022-09-17T11:35:11;95227.97;;;9.73;100.00
26937;BME280;14495;48.116;11.676;2022-09-17T11:37:43;95241.72;;;9.62;100.00
26937;BME280;14495;48.116;11.676;2022-09-17T11:43:14;95228.03;;;9.99;100.00
26937;BME280;14495;48.116;11.676;2022-09-17T11:45:50;95241.13;;;9.72;100.00
26937;BME280;14495;48.116;11.676;2022-09-17T11:48:19;95236.28;;;9.65;100.00
26937;BME280;14495;48.116;11.676;2022-09-17T11:50:59;95248.06;;;9.31;100.00
26937;BME280;14495;48.116;11.676;2022-09-17T11:53:35;95227.63;;;9.38;100.00
26937;BME280;14495;48.116;11.676;2022-09-17T11:56:19;95237.16;;;9.39;100.00
26937;BME280;14495;48.116;11.676;2022-09-17T11:59:02;95231.19;;;10.17;100.00
26937;BME280;14495;48.116;11.676;2022-09-17T12:01:39;95221.16;;;11.61;100.00
26937;BME280;14495;48.116;11.676;2022-09-17T12:04:18;95211.44;;;12.46;100.00
26937;BME280;14495;48.116;11.676;2022-09-17T12:06:56;95208.06;;;12.21;100.00
26937;BME280;14495;48.116;11.676;2022-09-17T12:09:27;95210.28;;;11.79;100.00
26937;BME280;14495;48.116;11.676;2022-09-17T12:14:42;95211.31;;;11.04;100.00
26937;BME280;14495;48.116;11.676;2022-09-17T12:17:15;95203.19;;;10.96;100.00
26937;BME280;14495;48.116;11.676;2022-09-17T12:19:49;95205.84;;;10.57;100.00
26937;BME280;14495;48.116;11.676;2022-09-17T12:22:22;95213.50;;;10.35;100.00
26937;BME280;14495;48.116;11.676;2022-09-17T12:24:50;95217.53;;;10.26;100.00
26937;BME280;14495;48.116;11.676;2022-09-17T12:27:37;95211.13;;;10.04;100.00
26937;BME280;14495;48.116;11.676;2022-09-17T12:30:07;95222.06;;;9.57;100.00
26937;BME280;14495;48.116;11.676;2022-09-17T12:41:10;95193.63;;;11.80;100.00
26937;BME280;14495;48.116;11.676;2022-09-17T12:44:14;95193.38;;;11.48;100.00
26937;BME280;14495;48.116;11.676;2022-09-17T12:49:57;95199.13;;;10.79;100.00
26937;BME280;14495;48.116;11.676;2022-09-17T12:55:45;95186.78;;;12.60;100.00
26937;BME280;14495;48.116;11.676;2022-09-17T12:58:41;95187.56;;;13.28;100.00
26937;BME280;14495;48.116;11.676;2022-09-17T13:03:44;95185.31;;;14.20;100.00
26937;BME280;14495;48.116;11.676;2022-09-17T13:06:38;95179.50;;;12.97;100.00
26937;BME280;14495;48.116;11.676;2022-09-17T13:12:07;95179.06;;;11.16;100.00
26937;BME280;14495;48.116;11.676;2022-09-17T13:17:57;95180.81;;;10.79;100.00
26937;BME280;14495;48.116;11.676;2022-09-17T13:20:32;95178.13;;;10.68;100.00
26937;BME280;14495;48.116;11.676;2022-09-17T13:23:02;95186.91;;;10.79;100.00
26937;BME280;14495;48.116;11.676;2022-09-17T13:25:29;95183.06;;;10.59;100.00
26937;BME280;14495;48.116;11.676;2022-09-17T13:28:06;95178.28;;;10.40;100.00
26937;BME280;14495;48.116;11.676;2022-09-17T13:30:57;95178.53;;;10.74;100.00
26937;BME280;14495;48.116;11.676;2022-09-17T13:33:57;95176.22;;;11.19;100.00
26937;BME280;14495;48.116;11.676;2022-09-17T13:36:39;95168.09;;;11.59;100.00
26937;BME280;14495;48.116;11.676;2022-09-17T13:39:08;95166.19;;;11.61;100.00
26937;BME280;14495;48.116;11.676;2022-09-17T13:41:40;95173.22;;;11.37;100.00
26937;BME280;14495;48.116;11.676;2022-09-17T13:44:08;95172.66;;;11.20;100.00
26937;BME280;14495;48.116;11.676;2022-09-17T13:46:35;95177.44;;;11.27;100.00
26937;BME280;14495;48.116;11.676;2022-09-17T13:49:04;95176.50;;;11.28;100.00
26937;BME280;14495;48.116;11.676;2022-09-17T13:54:02;95181.91;;;10.63;100.00
26937;BME280;14495;48.116;11.676;2022-09-17T13:56:35;95191.00;;;10.58;100.00
26937;BME280;14495;48.116;11.676;2022-09-17T13:59:11;95196.97;;;10.47;100.00
26937;BME280;14495;48.116;11.676;2022-09-17T14:20:50;95183.19;;;11.32;100.00
26937;BME280;14495;48.116;11.676;2022-09-17T14:23:17;95175.59;;;11.40;100.00
26937;BME280;14495;48.116;11.676;2022-09-17T14:25:53;95178.91;;;11.55;100.00
26937;BME280;14495;48.116;11.676;2022-09-17T14:28:31;95179.75;;;11.55;100.00
26937;BME280;14495;48.116;11.676;2022-09-17T14:30:59;95169.91;;;11.35;100.00
26937;BME280;14495;48.116;11.676;2022-09-17T14:33:28;95170.16;;;11.43;100.00
26937;BME280;14495;48.116;11.676;2022-09-17T14:36:01;95166.59;;;11.44;100.00
26937;BME280;14495;48.116;11.676;2022-09-17T14:38:39;95175.34;;;11.32;100.00
26937;BME280;14495;48.116;11.676;2022-09-17T14:43:51;95176.38;;;11.05;100.00
26937;BME280;14495;48.116;11.676;2022-09-17T14:46:32;95178.81;;;11.19;100.00
26937;BME280;14495;48.116;11.676;2022-09-17T14:51:43;95182.47;;;10.93;100.00
26937;BME280;14495;48.116;11.676;2022-09-17T14:54:15;95183.75;;;10.87;100.00
26937;BME280;14495;48.116;11.676;2022-09-17T14:56:46;95184.44;;;11.02;100.00
26937;BME280;14495;48.116;11.676;2022-09-17T15:02:40;95193.06;;;10.78;100.00
26937;BME280;14495;48.116;11.676;2022-09-17T15:08:13;95188.38;;;10.58;100.00
26937;BME280;14495;48.116;11.676;2022-09-17T15:10:58;95192.25;;;10.65;100.00
26937;BME280;14495;48.116;11.676;2022-09-17T15:13:27;95201.56;;;10.56;100.00
26937;BME280;14495;48.116;11.676;2022-09-17T15:16:16;95202.41;;;10.44;100.00
26937;BME280;14495;48.116;11.676;2022-09-17T15:18:52;95211.16;;;10.30;100.00
26937;BME280;14495;48.116;11.676;2022-09-17T15:23:55;95216.59;;;10.14;100.00
26937;BME280;14495;48.116;11.676;2022-09-17T15:26:27;95237.25;;;10.30;100.00
26937;BME280;14495;48.116;11.676;2022-09-17T15:28:57;95224.28;;;10.16;100.00
26937;BME280;14495;48.116;11.676;2022-09-17T15:31:24;95228.34;;;9.94;100.00
26937;BME280;14495;48.116;11.676;2022-09-17T15:33:52;95229.06;;;9.96;100.00
26937;BME280;14495;48.116;11.676;2022-09-17T15:36:24;95238.47;;;9.99;100.00
26937;BME280;14495;48.116;11.676;2022-09-17T15:38:52;95240.53;;;9.94;100.00
26937;BME280;14495;48.116;11.676;2022-09-17T15:43:45;95236.97;;;9.82;100.00